Time;durP1;ratioP1;P1;durP2;ratioP2;P2;SDS_P1;SDS_P2;PMS_P1;PMS_P2;Temp;Humidity;BMP_temperature;BMP_pressure;BME280_temperature;BME280_humidity;BME280_pressure;Samples;Min_cycle;Max_cycle;Signal;HPM_P1;HPM_P2
2022/09/24 00:00:52;;;;;;;10.53;9.53;;;11.50;99.90;;;;;;6148524;23;20687;-93
2022/09/24 00:03:19;;;;;;;10.40;9.60;;;11.80;99.90;;;;;;6149963;22;21222;-93
2022/09/24 00:05:47;;;;;;;12.40;9.77;;;11.70;99.90;;;;;;6148729;23;20557;-93
2022/09/24 00:08:15;;;;;;;10.80;9.87;;;11.60;99.90;;;;;;6149601;23;20555;-93
2022/09/24 00:10:44;;;;;;;10.90;10.10;;;11.80;99.90;;;;;;6150247;23;20596;-92
2022/09/24 00:13:14;;;;;;;12.97;11.53;;;11.30;99.90;;;;;;6150088;23;20612;-92
2022/09/24 00:15:43;;;;;;;12.83;11.63;;;11.50;99.90;;;;;;6160720;23;20581;-91
2022/09/24 00:18:10;;;;;;;12.07;10.60;;;11.80;99.90;;;;;;6161316;23;20559;-91
2022/09/24 00:20:38;;;;;;;12.30;10.93;;;11.60;99.90;;;;;;6160322;23;20598;-92
2022/09/24 00:23:08;;;;;;;11.37;10.33;;;12.00;99.90;;;;;;6154413;23;20612;-91
2022/09/24 00:28:26;;;;;;;10.00;9.00;;;11.50;99.90;;;;;;6147321;23;21151;-92
2022/09/24 00:30:57;;;;;;;10.60;9.70;;;11.40;99.90;;;;;;6146495;22;21170;-92
2022/09/24 00:33:24;;;;;;;9.63;8.93;;;11.60;99.90;;;;;;6148119;22;20695;-92
2022/09/24 00:35:52;;;;;;;11.03;10.07;;;11.80;99.90;;;;;;6147613;23;20603;-92
2022/09/24 00:38:19;;;;;;;10.60;9.70;;;11.40;99.90;;;;;;6149000;23;20549;-92
2022/09/24 00:40:46;;;;;;;10.50;9.60;;;11.50;99.90;;;;;;6158564;23;20604;-92
2022/09/24 00:43:28;;;;;;;10.70;9.90;;;11.70;99.90;;;;;;6157775;23;20609;-94
2022/09/24 00:45:57;;;;;;;19.97;11.77;;;11.80;99.90;;;;;;6152900;23;20951;-92
2022/09/24 00:48:25;;;;;;;11.90;11.00;;;11.20;99.90;;;;;;6152214;23;20580;-92
2022/09/24 00:50:52;;;;;;;12.87;11.77;;;11.30;99.90;;;;;;6147417;23;20684;-93
2022/09/24 00:53:22;;;;;;;11.80;10.80;;;11.10;99.90;;;;;;6148128;23;20612;-93
2022/09/24 00:55:53;;;;;;;11.10;10.40;;;11.60;99.90;;;;;;6147677;23;20565;-92
2022/09/24 00:58:22;;;;;;;11.80;10.97;;;11.10;99.90;;;;;;6149159;23;20612;-93
2022/09/24 01:00:55;;;;;;;12.17;10.77;;;11.20;99.90;;;;;;6147740;23;20561;-93
2022/09/24 01:03:25;;;;;;;13.07;11.87;;;11.50;99.90;;;;;;6148650;23;20619;-92
2022/09/24 01:05:52;;;;;;;11.33;10.30;;;11.50;99.90;;;;;;6147642;22;20557;-94
2022/09/24 01:08:20;;;;;;;12.53;11.53;;;11.50;99.90;;;;;;6148566;23;20571;-93
2022/09/24 01:11:12;;;;;;;11.60;10.63;;;11.50;99.90;;;;;;6148950;22;20640;-92
2022/09/24 01:13:58;;;;;;;12.67;11.77;;;11.40;99.90;;;;;;6147658;23;20840;-93
2022/09/24 01:16:35;;;;;;;11.60;10.70;;;11.00;99.90;;;;;;6147399;23;20567;-92
2022/09/24 01:19:18;;;;;;;12.37;11.27;;;11.30;99.90;;;;;;6146475;23;20620;-92
2022/09/24 01:21:49;;;;;;;12.40;11.40;;;11.00;99.90;;;;;;6148396;23;20553;-92
2022/09/24 01:24:39;;;;;;;10.97;9.90;;;11.20;99.90;;;;;;6147744;23;20589;-92
2022/09/24 01:27:11;;;;;;;12.03;11.13;;;11.10;99.90;;;;;;6150468;23;20638;-91
2022/09/24 01:30:02;;;;;;;11.57;10.77;;;11.40;99.90;;;;;;6167427;22;20592;-91
2022/09/24 01:32:34;;;;;;;12.13;11.17;;;11.20;99.90;;;;;;6176717;22;20600;-92
2022/09/24 01:35:14;;;;;;;12.87;11.77;;;10.70;99.90;;;;;;6176604;22;20589;-92
2022/09/24 01:37:44;;;;;;;12.27;11.30;;;11.30;99.90;;;;;;6170273;23;20556;-92
2022/09/24 01:40:12;;;;;;;12.63;11.60;;;10.80;99.90;;;;;;6170894;23;20616;-92
2022/09/24 01:42:42;;;;;;;11.87;10.60;;;10.90;99.90;;;;;;6171431;23;20806;-91
2022/09/24 01:45:12;;;;;;;12.70;11.70;;;10.60;99.90;;;;;;6154585;23;20659;-92
2022/09/24 01:47:40;;;;;;;12.40;11.50;;;10.90;99.90;;;;;;6152056;23;20591;-92
2022/09/24 01:50:10;;;;;;;13.63;12.40;;;10.40;99.90;;;;;;6149431;23;20576;-91
2022/09/24 01:52:42;;;;;;;13.53;12.23;;;11.00;99.90;;;;;;6150222;22;20612;-91
2022/09/24 01:55:14;;;;;;;13.67;12.67;;;10.80;99.90;;;;;;6149647;23;20552;-91
2022/09/24 01:57:46;;;;;;;12.80;11.70;;;10.80;99.90;;;;;;6149506;23;20557;-91
2022/09/24 02:00:18;;;;;;;12.80;11.70;;;10.40;99.90;;;;;;6150023;23;21117;-92
2022/09/24 02:02:49;;;;;;;12.43;11.43;;;10.40;99.90;;;;;;6149821;23;20580;-92
2022/09/24 02:05:22;;;;;;;12.67;11.60;;;10.50;99.90;;;;;;6149518;23;20575;-92
2022/09/24 02:07:57;;;;;;;12.47;11.57;;;10.40;99.90;;;;;;6150052;23;20576;-93
2022/09/24 02:10:25;;;;;;;13.87;12.67;;;10.60;99.90;;;;;;6150502;22;20614;-92
2022/09/24 02:12:58;;;;;;;14.40;13.20;;;10.10;99.90;;;;;;6151876;22;20626;-93
2022/09/24 02:15:32;;;;;;;14.67;13.47;;;10.30;99.90;;;;;;6158418;23;21042;-92
2022/09/24 02:18:04;;;;;;;13.20;12.20;;;10.30;99.90;;;;;;6158435;23;21128;-91
2022/09/24 02:20:33;;;;;;;13.10;11.90;;;10.00;99.90;;;;;;6157534;22;20634;-91
2022/09/24 02:23:00;;;;;;;11.53;10.73;;;10.40;99.90;;;;;;6154958;23;20719;-91
2022/09/24 02:25:31;;;;;;;12.50;11.50;;;10.10;99.90;;;;;;6155403;23;21005;-91
2022/09/24 02:27:58;;;;;;;14.07;12.90;;;10.30;99.90;;;;;;6156628;23;21177;-92
2022/09/24 02:30:25;;;;;;;14.23;12.47;;;10.30;99.90;;;;;;6155445;23;21015;-91
2022/09/24 02:32:54;;;;;;;15.37;14.07;;;10.00;99.90;;;;;;6156735;23;20604;-92
2022/09/24 02:35:21;;;;;;;13.47;12.27;;;10.60;99.90;;;;;;6156317;23;20586;-92
2022/09/24 02:37:48;;;;;;;13.63;12.63;;;10.50;99.90;;;;;;6155168;23;21107;-92
2022/09/24 02:40:15;;;;;;;13.20;12.30;;;10.40;99.90;;;;;;6156932;22;20879;-93
2022/09/24 02:42:43;;;;;;;12.97;11.67;;;9.90;99.90;;;;;;6155349;23;21222;-93
2022/09/24 02:45:11;;;;;;;13.53;12.43;;;10.50;99.90;;;;;;6149628;22;20634;-93
2022/09/24 02:47:37;;;;;;;13.33;12.30;;;10.50;99.90;;;;;;6149520;23;20584;-93
2022/09/24 02:50:07;;;;;;;14.27;13.13;;;10.20;99.90;;;;;;6149198;23;20600;-94
2022/09/24 02:52:35;;;;;;;14.10;12.87;;;10.60;99.90;;;;;;6148294;23;20596;-92
2022/09/24 02:55:02;;;;;;;13.40;12.40;;;10.00;99.90;;;;;;6148997;23;21406;-93
2022/09/24 02:57:29;;;;;;;13.03;12.03;;;10.20;99.90;;;;;;6148905;23;20565;-93
2022/09/24 02:59:56;;;;;;;13.87;12.77;;;10.40;99.90;;;;;;6148918;23;20683;-93
2022/09/24 03:02:23;;;;;;;14.47;13.27;;;10.60;99.90;;;;;;6149005;23;21112;-93
2022/09/24 03:04:50;;;;;;;12.57;11.57;;;10.60;99.90;;;;;;6147871;23;20958;-93
2022/09/24 03:07:20;;;;;;;12.70;11.70;;;10.20;99.90;;;;;;6148373;23;20573;-94
2022/09/24 03:09:47;;;;;;;13.07;12.17;;;10.20;99.90;;;;;;6149517;23;20591;-95
2022/09/24 03:12:14;;;;;;;13.57;12.57;;;10.70;99.90;;;;;;6151638;23;20592;-94
2022/09/24 03:14:40;;;;;;;14.20;12.97;;;10.20;99.90;;;;;;6160933;22;20601;-93
2022/09/24 03:17:08;;;;;;;13.77;12.77;;;10.20;99.90;;;;;;6178164;22;20562;-93
2022/09/24 03:19:35;;;;;;;13.00;12.07;;;10.30;99.90;;;;;;6169346;22;20654;-94
2022/09/24 03:22:02;;;;;;;14.50;13.37;;;10.90;99.90;;;;;;6158341;23;20615;-93
2022/09/24 03:24:30;;;;;;;16.70;13.17;;;10.60;99.90;;;;;;6160735;23;20652;-93
2022/09/24 03:26:57;;;;;;;15.27;14.07;;;10.40;99.90;;;;;;6161499;23;20595;-93
2022/09/24 03:32:05;;;;;;;14.80;13.17;;;10.60;99.90;;;;;;6149214;23;20587;-93
2022/09/24 03:34:32;;;;;;;12.73;11.73;;;10.60;99.90;;;;;;6146997;23;20576;-92
2022/09/24 03:36:58;;;;;;;13.97;12.83;;;10.40;99.90;;;;;;6148857;23;21112;-92
2022/09/24 03:39:27;;;;;;;12.87;11.87;;;11.00;99.90;;;;;;6147793;23;20944;-93
2022/09/24 03:41:55;;;;;;;13.83;12.80;;;10.50;99.90;;;;;;6147177;23;21120;-92
2022/09/24 03:44:21;;;;;;;12.27;11.37;;;11.00;99.90;;;;;;6149654;23;20917;-94
2022/09/24 03:46:49;;;;;;;14.60;13.20;;;10.80;99.90;;;;;;6150093;23;20640;-93
2022/09/24 03:49:16;;;;;;;14.33;13.17;;;10.80;99.90;;;;;;6157038;22;20588;-95
2022/09/24 03:51:45;;;;;;;13.90;12.93;;;10.80;99.90;;;;;;6179268;22;20541;-94
2022/09/24 03:54:12;;;;;;;13.87;12.87;;;10.80;99.90;;;;;;6177244;22;20608;-93
2022/09/24 03:56:39;;;;;;;14.90;13.67;;;11.00;99.90;;;;;;6174088;22;20569;-93
2022/09/24 03:59:07;;;;;;;14.20;13.10;;;11.10;99.90;;;;;;6149584;23;20637;-93
2022/09/24 04:01:36;;;;;;;12.60;11.60;;;11.00;99.90;;;;;;6148991;23;20581;-94
2022/09/24 04:04:03;;;;;;;13.53;12.53;;;10.50;99.90;;;;;;6147361;23;20626;-93
2022/09/24 04:06:30;;;;;;;14.93;13.80;;;10.60;99.90;;;;;;6146660;23;20647;-93
2022/09/24 04:08:59;;;;;;;13.87;12.77;;;10.70;99.90;;;;;;6149379;23;20676;-94
2022/09/24 04:11:29;;;;;;;13.40;12.20;;;10.90;99.90;;;;;;6152161;23;20618;-93
2022/09/24 04:13:57;;;;;;;13.30;12.10;;;10.90;99.90;;;;;;6147891;23;20620;-93
2022/09/24 04:16:26;;;;;;;12.83;11.70;;;10.50;99.90;;;;;;6147204;23;20609;-94
2022/09/24 04:18:54;;;;;;;13.87;12.83;;;10.80;99.90;;;;;;6147764;23;20600;-94
2022/09/24 04:21:22;;;;;;;14.70;13.50;;;10.50;99.90;;;;;;6146440;23;20691;-92
2022/09/24 04:23:49;;;;;;;12.40;11.30;;;10.70;99.90;;;;;;6145866;23;21199;-92
2022/09/24 04:26:16;;;;;;;13.13;12.00;;;10.90;99.90;;;;;;6146510;23;21352;-88
2022/09/24 04:28:42;;;;;;;14.67;13.47;;;11.30;99.90;;;;;;6147930;23;21150;-91
2022/09/24 04:31:09;;;;;;;13.33;12.17;;;11.10;99.90;;;;;;6156276;23;20586;-92
2022/09/24 04:33:37;;;;;;;13.67;12.30;;;11.10;99.90;;;;;;6157243;23;20630;-92
2022/09/24 04:36:19;;;;;;;13.53;12.50;;;11.00;99.90;;;;;;6149261;23;20565;-92
2022/09/24 04:39:03;;;;;;;13.57;12.40;;;11.10;99.90;;;;;;6165232;23;20533;-93
2022/09/24 04:41:30;;;;;;;15.23;12.87;;;11.10;99.90;;;;;;6178545;22;20584;-96
2022/09/24 04:43:58;;;;;;;13.87;12.77;;;10.90;99.90;;;;;;6175550;22;20620;-93
2022/09/24 04:46:25;;;;;;;14.50;13.50;;;11.00;99.90;;;;;;6159101;22;20660;-92
2022/09/24 04:48:53;;;;;;;13.33;12.43;;;11.20;99.90;;;;;;6147775;22;20565;-92
2022/09/24 04:51:20;;;;;;;15.33;13.97;;;11.40;99.90;;;;;;6148367;23;20569;-91
2022/09/24 04:53:49;;;;;;;14.10;12.80;;;11.40;99.90;;;;;;6148125;23;20671;-92
2022/09/24 04:56:16;;;;;;;14.73;13.70;;;10.90;99.90;;;;;;6149277;23;20891;-92
2022/09/24 04:58:43;;;;;;;14.83;13.47;;;10.90;99.90;;;;;;6154924;23;20591;-92
2022/09/24 05:01:16;;;;;;;13.83;12.77;;;10.70;99.90;;;;;;6166146;23;20676;-93
2022/09/24 05:03:45;;;;;;;13.57;12.57;;;10.90;99.90;;;;;;6156618;23;20612;-92
2022/09/24 05:06:13;;;;;;;14.43;13.20;;;10.70;99.90;;;;;;6148039;23;20903;-92
2022/09/24 05:08:40;;;;;;;14.80;13.60;;;11.10;99.90;;;;;;6148224;23;20591;-92
2022/09/24 05:11:08;;;;;;;15.07;13.77;;;10.80;99.90;;;;;;6149566;23;20581;-93
2022/09/24 05:13:35;;;;;;;14.57;13.50;;;10.80;99.90;;;;;;6148637;23;20646;-92
2022/09/24 05:16:03;;;;;;;14.00;13.00;;;10.80;99.90;;;;;;6148134;23;20596;-91
2022/09/24 05:18:30;;;;;;;15.90;13.40;;;10.80;99.90;;;;;;6143963;22;20604;-91
2022/09/24 05:20:56;;;;;;;15.10;13.93;;;11.10;99.90;;;;;;6148477;23;21138;-91
2022/09/24 05:23:24;;;;;;;14.30;13.20;;;10.70;99.90;;;;;;6148434;23;20936;-91
2022/09/24 05:28:34;;;;;;;14.90;13.63;;;10.90;99.90;;;;;;6170161;23;20581;-91
2022/09/24 05:31:01;;;;;;;15.10;13.70;;;11.30;99.90;;;;;;6168675;23;20678;-92
2022/09/24 05:33:28;;;;;;;13.17;11.97;;;10.90;99.90;;;;;;6170543;22;20612;-93
2022/09/24 05:35:56;;;;;;;15.83;14.63;;;11.30;99.90;;;;;;6168009;23;20557;-91
2022/09/24 05:38:24;;;;;;;15.80;14.60;;;10.50;99.90;;;;;;6160813;22;20903;-91
2022/09/24 05:40:51;;;;;;;15.63;14.43;;;10.60;99.90;;;;;;6147539;23;20718;-91
2022/09/24 05:43:19;;;;;;;16.73;15.50;;;10.70;99.90;;;;;;6161698;22;20589;-92
2022/09/24 05:45:55;;;;;;;14.57;13.63;;;11.00;99.90;;;;;;6166791;22;20656;-90
2022/09/24 05:48:22;;;;;;;14.30;13.20;;;10.70;99.90;;;;;;6168749;22;20632;-91
2022/09/24 05:50:54;;;;;;;15.53;14.23;;;11.00;99.90;;;;;;6164207;23;20591;-92
2022/09/24 05:53:24;;;;;;;15.27;14.17;;;11.00;99.90;;;;;;6183766;22;20631;-92
2022/09/24 05:55:52;;;;;;;16.23;15.03;;;10.70;99.90;;;;;;6166586;23;20553;-92
2022/09/24 05:58:20;;;;;;;14.20;13.20;;;11.10;99.90;;;;;;6162886;23;20553;-92
2022/09/24 06:00:48;;;;;;;15.67;14.33;;;11.20;99.90;;;;;;6156129;23;20627;-92
2022/09/24 06:03:31;;;;;;;15.30;14.20;;;10.80;99.90;;;;;;6148010;23;20608;-93
2022/09/24 06:06:00;;;;;;;14.67;13.37;;;11.30;99.90;;;;;;6148447;23;20603;-91
2022/09/24 06:08:36;;;;;;;14.50;13.20;;;10.80;99.90;;;;;;6156903;22;20592;-95
2022/09/24 06:11:07;;;;;;;13.33;12.20;;;11.00;99.90;;;;;;6175752;22;20620;-93
2022/09/24 06:13:36;;;;;;;14.00;13.00;;;11.00;99.90;;;;;;6153297;23;20658;-93
2022/09/24 06:16:06;;;;;;;14.30;13.27;;;11.00;99.90;;;;;;6150091;23;20591;-93
2022/09/24 06:18:35;;;;;;;13.23;12.33;;;11.40;99.90;;;;;;6164067;23;20656;-93
2022/09/24 06:21:03;;;;;;;12.10;11.10;;;11.50;99.90;;;;;;6152407;23;20648;-94
2022/09/24 06:23:32;;;;;;;13.43;12.30;;;11.50;99.90;;;;;;6149374;23;21018;-94
2022/09/24 06:25:59;;;;;;;14.57;13.27;;;11.60;99.90;;;;;;6150561;22;20525;-93
2022/09/24 06:28:29;;;;;;;13.27;12.10;;;11.70;99.90;;;;;;6150835;23;20576;-93
2022/09/24 06:30:56;;;;;;;13.90;12.77;;;11.30;99.90;;;;;;6153188;23;20575;-93
2022/09/24 06:33:23;;;;;;;12.80;11.70;;;11.70;99.90;;;;;;6160499;23;20593;-93
2022/09/24 06:35:50;;;;;;;12.93;11.90;;;11.80;99.90;;;;;;6163614;23;20589;-94
2022/09/24 06:41:57;;;;;;;11.90;11.10;;;11.90;99.90;;;;;;6176333;22;20624;-94
2022/09/24 06:44:26;;;;;;;12.30;11.40;;;11.90;99.90;;;;;;6176157;22;20588;-93
2022/09/24 06:46:53;;;;;;;11.43;10.63;;;12.00;99.90;;;;;;6164344;22;20581;-93
2022/09/24 06:49:23;;;;;;;12.53;11.17;;;12.00;99.90;;;;;;6150790;23;21052;-92
2022/09/24 06:51:49;;;;;;;12.40;11.40;;;12.10;99.90;;;;;;6156920;23;20683;-96
2022/09/24 06:54:19;;;;;;;11.90;10.80;;;12.50;99.90;;;;;;6153203;23;20701;-93
2022/09/24 06:57:06;;;;;;;11.40;10.50;;;12.00;99.90;;;;;;6160605;23;20573;-94
2022/09/24 06:59:45;;;;;;;12.80;11.67;;;12.00;99.90;;;;;;6173226;22;20592;-93
2022/09/24 07:02:13;;;;;;;13.77;10.20;;;12.10;99.90;;;;;;6176174;22;20595;-94
2022/09/24 07:04:40;;;;;;;11.77;10.80;;;12.20;99.90;;;;;;6173769;22;20524;-93
2022/09/24 07:09:53;;;;;;;11.10;10.10;;;12.40;99.90;;;;;;6170675;22;20540;-93
2022/09/24 07:12:24;;;;;;;11.50;10.53;;;12.40;99.90;;;;;;6150352;23;20664;-93
2022/09/24 07:14:52;;;;;;;11.87;10.93;;;12.40;99.90;;;;;;6147206;23;20916;-92
2022/09/24 07:17:20;;;;;;;10.70;9.70;;;12.60;99.90;;;;;;6145760;23;20624;-93
2022/09/24 07:19:50;;;;;;;10.63;9.93;;;12.50;99.90;;;;;;6149049;23;20585;-94
2022/09/24 07:22:20;;;;;;;11.37;10.47;;;12.50;99.90;;;;;;6166077;22;20679;-92
2022/09/24 07:24:52;;;;;;;12.20;11.17;;;12.50;99.90;;;;;;6173237;22;20596;-92
2022/09/24 07:27:21;;;;;;;12.17;11.27;;;12.60;99.90;;;;;;6160092;23;20623;-92
2022/09/24 07:29:48;;;;;;;11.30;10.23;;;12.20;99.90;;;;;;6163778;22;20589;-92
2022/09/24 07:32:19;;;;;;;10.60;9.67;;;12.30;99.90;;;;;;6154630;23;20593;-94
2022/09/24 07:34:47;;;;;;;10.40;9.60;;;12.70;99.90;;;;;;6155143;23;20591;-93
2022/09/24 07:37:13;;;;;;;11.80;10.70;;;12.80;99.90;;;;;;6154446;23;20588;-93
2022/09/24 07:39:40;;;;;;;10.40;9.47;;;13.00;99.90;;;;;;6166632;22;21132;-93
2022/09/24 07:42:07;;;;;;;13.40;12.40;;;12.80;99.90;;;;;;6153845;23;20684;-93
2022/09/24 07:44:40;;;;;;;12.10;10.90;;;12.80;99.90;;;;;;6159654;23;20521;-93
2022/09/24 07:47:07;;;;;;;11.30;10.37;;;12.60;99.90;;;;;;6151678;23;20664;-92
2022/09/24 07:49:35;;;;;;;12.47;11.30;;;13.00;99.90;;;;;;6157422;23;20581;-91
2022/09/24 07:52:02;;;;;;;11.60;10.27;;;12.90;99.90;;;;;;6172299;22;20639;-93
2022/09/24 07:54:30;;;;;;;11.77;10.63;;;13.20;99.90;;;;;;6156244;23;20610;-93
2022/09/24 07:56:57;;;;;;;11.03;9.97;;;13.10;99.90;;;;;;6156689;23;20899;-94
2022/09/24 07:59:24;;;;;;;10.23;9.43;;;13.40;99.90;;;;;;6153305;22;20939;-93
2022/09/24 08:01:56;;;;;;;11.03;10.03;;;13.40;99.90;;;;;;6151074;22;20674;-93
2022/09/24 08:04:23;;;;;;;10.47;9.10;;;13.60;99.90;;;;;;6158100;23;20597;-90
2022/09/24 08:06:50;;;;;;;10.73;9.33;;;13.90;99.90;;;;;;6155628;22;20707;-91
2022/09/24 08:09:17;;;;;;;11.83;10.10;;;13.70;99.90;;;;;;6148058;23;20582;-92
2022/09/24 08:11:44;;;;;;;11.30;10.40;;;13.70;99.90;;;;;;6146936;23;20662;-91
2022/09/24 08:14:11;;;;;;;11.10;9.53;;;13.90;99.90;;;;;;6147925;23;20644;-91
2022/09/24 08:16:39;;;;;;;10.27;8.97;;;14.00;99.90;;;;;;6147328;23;20561;-91
2022/09/24 08:19:12;;;;;;;10.23;9.43;;;14.20;99.90;;;;;;6156650;23;20599;-91
2022/09/24 08:21:41;;;;;;;9.60;8.57;;;14.00;99.90;;;;;;6155844;23;20706;-93
2022/09/24 08:24:09;;;;;;;9.93;9.13;;;14.40;99.90;;;;;;6148801;23;20612;-92
2022/09/24 08:26:35;;;;;;;9.73;8.93;;;14.00;99.90;;;;;;6149165;23;20599;-92
2022/09/24 08:29:03;;;;;;;9.80;8.97;;;14.20;99.90;;;;;;6148090;23;20595;-91
2022/09/24 08:31:33;;;;;;;11.30;10.27;;;14.10;99.90;;;;;;6149586;23;20544;-92
2022/09/24 08:34:00;;;;;;;11.40;10.37;;;14.00;99.90;;;;;;6148324;23;20612;-91
2022/09/24 08:36:29;;;;;;;10.60;9.60;;;13.60;99.90;;;;;;6146403;23;20922;-91
2022/09/24 08:38:59;;;;;;;11.00;9.73;;;13.70;99.90;;;;;;6147703;23;20557;-92
2022/09/24 08:41:43;;;;;;;16.80;10.00;;;14.00;99.90;;;;;;6147783;23;20592;-92
2022/09/24 08:47:21;;;;;;;9.97;9.07;;;14.10;99.90;;;;;;6164623;22;20600;-93
2022/09/24 08:47:22;;;;;;;9.80;8.90;;;14.30;99.90;;;;;;6150460;23;21127;-92
2022/09/24 08:49:55;;;;;;;11.00;10.10;;;14.50;99.90;;;;;;6148537;22;20937;-92
2022/09/24 08:52:36;;;;;;;9.87;8.90;;;14.70;99.90;;;;;;6149519;23;20633;-92
2022/09/24 08:55:08;;;;;;;10.53;9.73;;;14.90;99.90;;;;;;6149317;23;21049;-92
2022/09/24 08:57:44;;;;;;;11.17;8.90;;;14.80;99.90;;;;;;6150659;23;20577;-92
2022/09/24 09:00:15;;;;;;;14.93;9.83;;;15.00;99.90;;;;;;6148808;23;20590;-92
2022/09/24 09:02:49;;;;;;;8.87;8.03;;;15.10;99.90;;;;;;6147304;23;20651;-92
2022/09/24 09:05:26;;;;;;;9.27;8.23;;;15.30;99.90;;;;;;6149427;23;20619;-94
2022/09/24 09:08:02;;;;;;;9.40;8.60;;;15.40;99.90;;;;;;6153211;22;21060;-92
2022/09/24 09:10:34;;;;;;;8.90;8.10;;;15.40;99.90;;;;;;6149120;23;20553;-92
2022/09/24 09:13:09;;;;;;;8.40;7.60;;;15.60;99.90;;;;;;6150357;23;20697;-93
2022/09/24 09:15:40;;;;;;;8.63;7.97;;;15.70;99.90;;;;;;6151986;23;20620;-92
2022/09/24 09:18:16;;;;;;;8.33;7.73;;;15.80;99.90;;;;;;6143630;23;20577;-92
2022/09/24 09:20:45;;;;;;;8.60;7.10;;;15.50;99.90;;;;;;6167554;23;20615;-92
2022/09/24 09:23:20;;;;;;;7.30;6.40;;;15.60;99.90;;;;;;6172324;23;20615;-93
2022/09/24 09:25:51;;;;;;;7.47;6.33;;;16.10;99.90;;;;;;6175561;22;20559;-92
2022/09/24 09:28:20;;;;;;;5.80;5.30;;;16.60;99.90;;;;;;6176144;22;20555;-92
2022/09/24 09:30:58;;;;;;;6.37;5.70;;;16.80;99.90;;;;;;6175398;22;20549;-92
2022/09/24 09:33:45;;;;;;;6.87;6.30;;;16.50;99.90;;;;;;6175752;22;20631;-92
2022/09/24 09:36:32;;;;;;;6.97;5.83;;;16.30;99.90;;;;;;6174306;22;20560;-91
2022/09/24 09:39:08;;;;;;;6.60;6.10;;;16.20;99.90;;;;;;6171750;22;20691;-92
2022/09/24 09:41:41;;;;;;;6.63;6.03;;;15.90;99.90;;;;;;6170217;22;20612;-93
2022/09/24 09:44:13;;;;;;;6.63;6.13;;;16.20;99.90;;;;;;6168884;22;20622;-93
2022/09/24 09:46:51;;;;;;;6.80;6.20;;;15.90;99.90;;;;;;6163601;23;20545;-92
2022/09/24 09:49:18;;;;;;;7.93;6.57;;;16.00;99.90;;;;;;6163161;23;20557;-91
2022/09/24 09:51:47;;;;;;;7.43;6.70;;;16.10;99.90;;;;;;6164086;23;20577;-92
2022/09/24 09:54:17;;;;;;;6.73;6.13;;;16.10;99.90;;;;;;6162820;22;20617;-92
2022/09/24 10:03:27;;;;;;;7.83;7.03;;;15.90;99.90;;;;;;6175624;22;20691;-91
2022/09/24 10:06:35;;;;;;;6.53;6.03;;;15.80;99.90;;;;;;6177795;22;20651;-92
2022/09/24 10:09:13;;;;;;;6.33;5.73;;;15.80;99.90;;;;;;6177686;22;20593;-91
2022/09/24 10:11:42;;;;;;;6.87;6.13;;;16.10;99.90;;;;;;6176437;22;20560;-92
2022/09/24 10:14:11;;;;;;;9.33;7.20;;;16.30;99.90;;;;;;6175326;22;20604;-92
2022/09/24 10:16:40;;;;;;;7.57;6.87;;;16.30;99.90;;;;;;6164080;23;20585;-91
2022/09/24 10:19:17;;;;;;;7.53;5.97;;;16.30;99.90;;;;;;6164911;23;20533;-92
2022/09/24 10:21:47;;;;;;;6.00;5.50;;;16.40;99.90;;;;;;6166330;22;20618;-93
2022/09/24 10:24:18;;;;;;;7.50;6.90;;;16.30;99.90;;;;;;6146339;23;20607;-91
2022/09/24 10:26:48;;;;;;;7.33;6.73;;;16.30;99.90;;;;;;6147435;23;20522;-91
2022/09/24 10:32:13;;;;;;;6.57;6.07;;;16.40;99.90;;;;;;6148923;23;21063;-94
2022/09/24 10:34:40;;;;;;;7.10;6.50;;;16.50;99.90;;;;;;6147735;23;20584;-92
2022/09/24 10:37:14;;;;;;;7.83;6.17;;;16.70;99.90;;;;;;6153636;23;20890;-92
2022/09/24 10:39:42;;;;;;;6.70;6.20;;;17.10;99.90;;;;;;6154671;23;20521;-91
2022/09/24 10:42:23;;;;;;;6.03;5.50;;;16.90;99.90;;;;;;6155376;23;20598;-92
2022/09/24 10:44:52;;;;;;;6.93;6.33;;;17.00;99.90;;;;;;6165188;22;20599;-91
2022/09/24 10:47:26;;;;;;;8.43;7.60;;;16.80;99.90;;;;;;6166958;22;20660;-94
2022/09/24 10:50:07;;;;;;;9.67;6.43;;;16.90;99.90;;;;;;6148215;22;21124;-93
2022/09/24 10:52:44;;;;;;;3.90;3.50;;;17.00;99.90;;;;;;6148134;23;21140;-92
2022/09/24 10:55:23;;;;;;;2.70;2.50;;;17.30;99.90;;;;;;6147271;23;20592;-92
2022/09/24 10:58:01;;;;;;;5.50;2.87;;;16.80;99.90;;;;;;6148375;23;21056;-93
2022/09/24 11:00:37;;;;;;;2.73;2.53;;;16.70;99.90;;;;;;6147182;23;20615;-93
2022/09/24 11:03:28;;;;;;;2.70;2.43;;;16.70;99.90;;;;;;6148721;23;20631;-93
2022/09/24 11:06:01;;;;;;;2.67;2.57;;;16.60;99.90;;;;;;6148189;23;20560;-92
2022/09/24 11:08:46;;;;;;;2.63;2.43;;;16.40;99.90;;;;;;6148064;23;21195;-93
2022/09/24 11:11:32;;;;;;;3.00;2.80;;;16.40;99.90;;;;;;6150008;23;20816;-93
2022/09/24 11:14:14;;;;;;;3.27;2.90;;;16.30;99.90;;;;;;6148557;23;20577;-91
2022/09/24 11:17:05;;;;;;;3.87;2.83;;;16.30;99.90;;;;;;6143187;23;20553;-89
2022/09/24 11:19:49;;;;;;;3.40;3.10;;;16.30;99.90;;;;;;6143707;23;20583;-89
2022/09/24 11:22:22;;;;;;;3.67;3.33;;;15.90;99.90;;;;;;6144821;23;20643;-90
2022/09/24 11:25:05;;;;;;;3.60;3.20;;;15.90;99.90;;;;;;6146248;22;20537;-92
2022/09/24 11:27:51;;;;;;;4.57;4.17;;;16.00;99.90;;;;;;6163309;22;21136;-91
2022/09/24 11:30:23;;;;;;;5.17;3.97;;;15.80;99.90;;;;;;6147335;23;20554;-89
2022/09/24 11:33:11;;;;;;;3.90;3.50;;;15.80;99.90;;;;;;6150182;23;20639;-90
2022/09/24 11:35:58;;;;;;;3.63;3.33;;;15.80;99.90;;;;;;6145782;23;20576;-92
2022/09/24 11:38:37;;;;;;;2.93;2.73;;;15.80;99.90;;;;;;6147419;23;20668;-92
2022/09/24 11:41:22;;;;;;;7.90;4.50;;;15.60;99.90;;;;;;6147880;23;20562;-91
2022/09/24 11:44:17;;;;;;;4.83;3.10;;;15.60;99.90;;;;;;6163628;22;20616;-91
2022/09/24 11:46:58;;;;;;;3.30;3.00;;;15.60;99.90;;;;;;6145823;23;21111;-91
2022/09/24 11:49:48;;;;;;;3.37;3.17;;;15.40;99.90;;;;;;6147099;23;20807;-91
2022/09/24 11:52:28;;;;;;;3.67;3.37;;;15.30;99.90;;;;;;6151378;23;20616;-93
2022/09/24 11:55:05;;;;;;;3.27;3.07;;;15.30;99.90;;;;;;6151718;22;20586;-93
2022/09/24 11:57:41;;;;;;;3.87;3.40;;;15.60;99.90;;;;;;6154906;23;20549;-93
2022/09/24 12:00:19;;;;;;;3.73;3.13;;;15.70;99.90;;;;;;6148695;22;20580;-92
2022/09/24 12:02:50;;;;;;;3.50;3.13;;;15.90;99.90;;;;;;6149734;23;21172;-93
2022/09/24 12:05:28;;;;;;;3.00;2.70;;;16.20;99.90;;;;;;6150749;23;20533;-94
2022/09/24 12:08:26;;;;;;;3.63;3.10;;;16.10;99.90;;;;;;6158409;23;20525;-94
2022/09/24 12:11:00;;;;;;;3.90;3.60;;;16.10;99.90;;;;;;6153416;23;20584;-93
2022/09/24 12:13:37;;;;;;;3.20;3.00;;;16.00;99.90;;;;;;6156189;23;20683;-95
2022/09/24 12:16:08;;;;;;;3.93;3.63;;;16.20;99.90;;;;;;6164378;23;20596;-94
2022/09/24 12:21:47;;;;;;;3.50;3.20;;;16.50;99.90;;;;;;6176810;22;20588;-95
2022/09/24 12:27:34;;;;;;;4.87;4.00;;;16.60;99.90;;;;;;6169133;23;20581;-95
2022/09/24 12:33:15;;;;;;;4.53;4.13;;;16.40;99.90;;;;;;6161781;23;20580;-93
2022/09/24 12:36:04;;;;;;;4.40;4.03;;;16.40;99.90;;;;;;6166167;23;20698;-93
2022/09/24 12:38:37;;;;;;;4.60;3.90;;;16.50;99.90;;;;;;6158547;23;21126;-93
2022/09/24 12:41:25;;;;;;;4.47;3.83;;;16.50;99.90;;;;;;6151927;23;20572;-93
2022/09/24 12:44:05;;;;;;;4.73;4.17;;;16.40;99.90;;;;;;6166041;23;20612;-92
2022/09/24 12:46:39;;;;;;;4.90;4.50;;;16.40;99.90;;;;;;6159715;23;20668;-92
2022/09/24 12:49:18;;;;;;;4.40;4.00;;;16.30;99.90;;;;;;6153647;23;20600;-92
2022/09/24 12:51:47;;;;;;;5.03;4.50;;;16.20;99.90;;;;;;6151158;23;21360;-93
2022/09/24 12:54:27;;;;;;;5.40;4.97;;;16.20;99.90;;;;;;6145610;23;20603;-92
2022/09/24 12:57:09;;;;;;;5.13;4.17;;;16.20;99.90;;;;;;6146311;23;20580;-93
2022/09/24 12:59:47;;;;;;;4.90;4.50;;;16.40;99.90;;;;;;6148344;23;21012;-92
2022/09/24 13:02:17;;;;;;;5.30;4.80;;;16.50;99.90;;;;;;6148774;23;20635;-93
2022/09/24 13:04:49;;;;;;;5.30;4.90;;;16.50;99.90;;;;;;6148837;23;20525;-93
2022/09/24 13:07:35;;;;;;;4.27;3.87;;;16.60;99.90;;;;;;6152615;23;20585;-93
2022/09/24 13:10:23;;;;;;;5.50;5.10;;;16.70;99.90;;;;;;6162594;23;20573;-93
2022/09/24 13:12:51;;;;;;;5.67;5.10;;;16.70;99.90;;;;;;6151859;23;20609;-91
2022/09/24 13:15:31;;;;;;;4.90;4.50;;;16.60;99.90;;;;;;6160531;22;20605;-93
2022/09/24 13:18:18;;;;;;;4.10;3.80;;;16.70;99.90;;;;;;6146439;23;20580;-94
2022/09/24 13:20:56;;;;;;;8.80;5.90;;;16.70;99.90;;;;;;6145280;23;20592;-91
2022/09/24 13:23:46;;;;;;;5.87;5.33;;;16.70;99.90;;;;;;6144566;22;20654;-93
2022/09/24 13:26:29;;;;;;;8.40;5.67;;;16.60;99.90;;;;;;6157000;23;20662;-92
2022/09/24 13:28:59;;;;;;;7.70;6.90;;;16.70;99.90;;;;;;6152049;22;20549;-93
2022/09/24 13:31:33;;;;;;;5.37;4.87;;;16.60;99.90;;;;;;6151386;23;20568;-94
2022/09/24 13:34:05;;;;;;;5.77;5.37;;;16.40;99.90;;;;;;6156560;23;20702;-93